createdAt,value
2023-05-17T00:02:18.748Z,10.53
2023-05-17T00:04:48.845Z,9.57
2023-05-17T00:07:17.600Z,8.43
2023-05-17T00:09:46.504Z,9.57
2023-05-17T00:12:14.530Z,9.50
2023-05-17T00:14:42.666Z,12.87
2023-05-17T00:17:10.943Z,9.17
2023-05-17T00:19:39.242Z,8.67
2023-05-17T00:22:09.180Z,8.77
2023-05-17T00:24:37.398Z,9.27
2023-05-17T00:27:06.147Z,9.20
2023-05-17T00:29:34.256Z,8.33
2023-05-17T00:32:03.002Z,9.23
2023-05-17T00:34:31.812Z,9.97
2023-05-17T00:37:00.130Z,9.57
2023-05-17T00:39:29.776Z,9.80
2023-05-17T00:41:57.873Z,10.67
2023-05-17T00:44:38.875Z,9.57
2023-05-17T00:47:07.174Z,9.57
2023-05-17T00:49:35.633Z,10.40
2023-05-17T00:52:04.016Z,9.73
2023-05-17T00:54:35.407Z,9.93
2023-05-17T00:57:04.437Z,9.27
2023-05-17T00:59:37.569Z,11.17
2023-05-17T01:02:06.699Z,12.20
2023-05-17T01:04:34.979Z,10.60
2023-05-17T01:07:03.214Z,9.57
2023-05-17T01:09:32.008Z,12.30
2023-05-17T01:12:09.277Z,12.03
2023-05-17T01:14:48.663Z,11.30
2023-05-17T01:17:24.088Z,10.43
2023-05-17T01:20:02.355Z,9.80
2023-05-17T01:22:41.286Z,11.93
2023-05-17T01:25:43.930Z,11.33
2023-05-17T01:28:16.276Z,10.07
2023-05-17T01:30:46.426Z,11.57
2023-05-17T01:33:16.448Z,11.27
2023-05-17T01:35:44.868Z,11.50
2023-05-17T01:38:12.974Z,12.93
2023-05-17T01:40:49.479Z,11.13
2023-05-17T01:43:25.395Z,13.93
2023-05-17T01:46:01.976Z,11.77
2023-05-17T01:48:36.877Z,12.70
2023-05-17T01:51:06.170Z,12.77
2023-05-17T01:53:40.663Z,14.03
2023-05-17T01:59:00.707Z,12.80
2023-05-17T02:01:31.905Z,13.63
2023-05-17T02:04:00.008Z,12.00
2023-05-17T02:06:28.418Z,14.97
2023-05-17T02:08:56.574Z,14.00
2023-05-17T02:11:36.369Z,13.43
2023-05-17T02:14:05.920Z,13.03
2023-05-17T02:16:37.745Z,14.87
2023-05-17T02:19:07.553Z,14.27
2023-05-17T02:21:36.129Z,14.37
2023-05-17T02:24:04.287Z,13.90
2023-05-17T02:26:33.322Z,14.17
2023-05-17T02:29:01.589Z,12.77
2023-05-17T02:31:33.848Z,11.87
2023-05-17T02:34:02.046Z,12.00
2023-05-17T02:36:30.959Z,12.63
2023-05-17T02:38:59.493Z,14.43
2023-05-17T02:41:28.184Z,14.47
2023-05-17T02:43:56.567Z,13.47
2023-05-17T02:46:26.292Z,11.70
2023-05-17T02:48:55.921Z,12.00
2023-05-17T02:51:24.038Z,11.50
2023-05-17T02:53:52.528Z,10.57
2023-05-17T02:56:21.278Z,13.00
2023-05-17T02:58:49.328Z,11.30
2023-05-17T03:01:17.476Z,11.60
2023-05-17T03:03:46.255Z,12.17
2023-05-17T03:06:17.255Z,12.77
2023-05-17T03:08:45.474Z,13.03
2023-05-17T03:11:14.399Z,9.00
2023-05-17T03:13:42.528Z,11.73
2023-05-17T03:16:10.761Z,13.13
2023-05-17T03:18:39.214Z,13.40
2023-05-17T03:21:07.504Z,11.67
2023-05-17T03:23:37.142Z,5.47
2023-05-17T03:26:05.393Z,3.90
2023-05-17T03:28:33.577Z,3.40
2023-05-17T03:31:01.970Z,4.00
2023-05-17T03:33:36.918Z,3.30
2023-05-17T03:36:05.910Z,2.83
2023-05-17T03:38:34.132Z,2.90
2023-05-17T03:41:04.704Z,2.83
2023-05-17T03:43:33.675Z,2.67
2023-05-17T03:46:02.248Z,2.23
2023-05-17T03:48:36.465Z,2.33
2023-05-17T03:51:05.451Z,2.40
2023-05-17T03:53:33.915Z,2.70
2023-05-17T03:56:03.604Z,2.40
2023-05-17T03:58:31.686Z,2.50
2023-05-17T04:00:59.841Z,2.77
2023-05-17T04:03:28.015Z,2.13
2023-05-17T04:06:02.241Z,3.10
2023-05-17T04:08:30.540Z,3.00
2023-05-17T04:10:58.727Z,2.10
2023-05-17T04:13:28.240Z,2.30
2023-05-17T04:15:56.453Z,2.20
2023-05-17T04:18:24.818Z,2.50
2023-05-17T04:20:53.039Z,3.20
2023-05-17T04:23:21.261Z,2.47
2023-05-17T04:25:49.381Z,2.40
2023-05-17T04:28:17.966Z,2.63
2023-05-17T04:30:49.277Z,2.53
2023-05-17T04:33:18.177Z,3.70
2023-05-17T04:35:47.821Z,2.73
2023-05-17T04:38:16.401Z,2.03
2023-05-17T04:40:44.506Z,2.00
2023-05-17T04:43:12.684Z,4.47
2023-05-17T04:45:41.327Z,3.30
2023-05-17T04:48:12.841Z,2.30
2023-05-17T04:50:41.032Z,2.87
2023-05-17T04:53:09.910Z,2.10
2023-05-17T04:55:38.149Z,1.90
2023-05-17T04:58:06.334Z,2.10
2023-05-17T05:00:34.838Z,2.20
2023-05-17T05:03:05.007Z,2.77
2023-05-17T05:05:37.957Z,2.90
2023-05-17T05:08:06.249Z,1.73
2023-05-17T05:10:34.787Z,2.80
2023-05-17T05:13:03.065Z,3.70
2023-05-17T05:15:31.683Z,2.37
2023-05-17T05:18:00.339Z,2.10
2023-05-17T05:20:29.043Z,2.10
2023-05-17T05:22:58.968Z,2.00
2023-05-17T05:25:27.656Z,1.80
2023-05-17T05:27:56.441Z,1.93
2023-05-17T05:30:24.612Z,1.90
2023-05-17T05:32:53.377Z,2.33
2023-05-17T05:35:26.464Z,5.23
2023-05-17T05:37:55.087Z,2.30
2023-05-17T05:40:24.891Z,2.20
2023-05-17T05:42:53.634Z,2.67
2023-05-17T05:45:21.997Z,2.70
2023-05-17T05:47:50.784Z,2.20
2023-05-17T05:50:19.251Z,2.00
2023-05-17T05:52:47.696Z,2.40
2023-05-17T05:55:15.774Z,2.60
2023-05-17T05:57:45.712Z,2.00
2023-05-17T06:00:15.068Z,2.13
2023-05-17T06:02:43.188Z,2.60
2023-05-17T06:05:11.882Z,2.30
2023-05-17T06:07:40.080Z,5.90
2023-05-17T06:10:09.741Z,3.23
2023-05-17T06:12:37.893Z,2.13
2023-05-17T06:15:09.006Z,2.20
2023-05-17T06:17:37.413Z,2.47
2023-05-17T06:20:06.984Z,2.10
2023-05-17T06:22:35.104Z,2.57
2023-05-17T06:25:03.166Z,2.17
2023-05-17T06:27:32.832Z,1.80
2023-05-17T06:30:01.491Z,1.90
2023-05-17T06:32:31.161Z,2.13
2023-05-17T06:34:59.444Z,1.70
2023-05-17T06:37:27.599Z,2.80
2023-05-17T06:42:37.769Z,2.83
2023-05-17T06:45:07.483Z,2.93
2023-05-17T06:47:40.191Z,1.10
2023-05-17T06:50:09.910Z,1.70
2023-05-17T06:52:38.169Z,1.13
2023-05-17T06:55:07.601Z,1.10
2023-05-17T06:57:35.770Z,1.00
2023-05-17T07:00:06.731Z,2.30
2023-05-17T07:02:35.178Z,0.90
2023-05-17T07:05:04.996Z,0.70
2023-05-17T07:07:33.163Z,2.67
2023-05-17T07:10:01.434Z,1.43
2023-05-17T07:12:39.316Z,1.13
2023-05-17T07:15:08.410Z,1.83
2023-05-17T07:17:36.680Z,2.13
2023-05-17T07:20:07.364Z,0.50
2023-05-17T07:22:35.509Z,0.60
2023-05-17T07:25:03.608Z,0.57
2023-05-17T07:27:32.424Z,0.80
2023-05-17T07:30:00.576Z,0.50
2023-05-17T07:32:28.917Z,1.00
2023-05-17T07:34:57.106Z,1.33
2023-05-17T07:37:27.152Z,1.50
2023-05-17T07:39:55.412Z,0.47
2023-05-17T07:42:24.813Z,0.70
2023-05-17T07:44:54.663Z,0.60
2023-05-17T07:47:22.759Z,0.60
2023-05-17T07:49:51.453Z,1.63
2023-05-17T07:52:19.629Z,0.50
2023-05-17T07:54:49.315Z,0.60
2023-05-17T07:57:17.727Z,0.70
2023-05-17T07:59:46.175Z,1.13
2023-05-17T08:02:14.399Z,0.40
2023-05-17T08:04:43.214Z,0.63
2023-05-17T08:07:11.339Z,0.50
2023-05-17T08:09:40.326Z,0.80
2023-05-17T08:12:09.931Z,0.47
2023-05-17T08:14:39.079Z,0.93
2023-05-17T08:17:07.250Z,0.50
2023-05-17T08:19:37.397Z,0.87
2023-05-17T08:22:05.984Z,0.73
2023-05-17T08:24:34.154Z,0.80
2023-05-17T08:27:02.637Z,0.50
2023-05-17T08:29:38.787Z,1.27
2023-05-17T08:32:08.692Z,0.77
2023-05-17T08:34:36.794Z,0.70
2023-05-17T08:37:05.119Z,0.50
2023-05-17T08:39:34.004Z,1.57
2023-05-17T08:42:02.629Z,0.83
2023-05-17T08:44:33.695Z,0.60
2023-05-17T08:47:02.969Z,1.17
2023-05-17T08:49:33.398Z,2.30
2023-05-17T08:52:03.545Z,0.50
2023-05-17T08:54:32.130Z,1.60
2023-05-17T08:57:02.576Z,0.73
2023-05-17T08:59:34.034Z,0.70
2023-05-17T09:02:03.038Z,0.60
2023-05-17T09:04:31.740Z,1.13
2023-05-17T09:06:59.932Z,0.60
2023-05-17T09:09:28.877Z,0.70
2023-05-17T09:11:57.193Z,0.60
2023-05-17T09:14:25.386Z,1.50
2023-05-17T09:16:58.877Z,0.67
2023-05-17T09:19:27.159Z,0.60
2023-05-17T09:21:56.949Z,0.97
2023-05-17T09:24:39.634Z,0.60
2023-05-17T09:27:07.745Z,0.50
2023-05-17T09:29:37.059Z,0.77
2023-05-17T09:32:26.091Z,0.60
2023-05-17T09:34:56.454Z,1.80
2023-05-17T09:37:27.458Z,0.60
2023-05-17T09:39:56.387Z,0.80
2023-05-17T09:42:27.784Z,0.60
2023-05-17T09:45:00.301Z,0.60
2023-05-17T09:47:32.036Z,0.60
2023-05-17T09:50:03.870Z,0.67
2023-05-17T09:52:32.639Z,2.30
2023-05-17T09:55:01.978Z,0.67
2023-05-17T09:57:38.200Z,0.80
2023-05-17T10:00:09.662Z,1.47
2023-05-17T10:02:41.384Z,0.80
2023-05-17T10:05:13.270Z,0.50
2023-05-17T10:07:43.181Z,0.77
2023-05-17T10:10:14.337Z,0.50
2023-05-17T10:12:43.231Z,1.43
2023-05-17T10:15:16.293Z,0.60
2023-05-17T10:17:46.702Z,0.50
2023-05-17T10:20:17.804Z,0.77
2023-05-17T10:22:46.707Z,0.70
2023-05-17T10:25:17.242Z,0.70
2023-05-17T10:27:47.389Z,0.70
2023-05-17T10:30:16.834Z,1.17
2023-05-17T10:32:46.794Z,0.70
2023-05-17T10:35:16.941Z,0.80
2023-05-17T10:37:45.161Z,2.63
2023-05-17T10:40:14.415Z,0.60
2023-05-17T10:42:45.849Z,0.70
2023-05-17T10:45:14.893Z,0.70
2023-05-17T10:47:46.270Z,2.13
2023-05-17T10:50:29.359Z,0.70
2023-05-17T10:53:00.959Z,0.70
2023-05-17T10:55:41.337Z,2.47
2023-05-17T10:58:17.859Z,0.60
2023-05-17T11:00:48.314Z,1.00
2023-05-17T11:03:19.297Z,2.17
2023-05-17T11:06:23.935Z,1.43
2023-05-17T11:09:16.707Z,2.17
2023-05-17T11:12:06.205Z,1.33
2023-05-17T11:14:53.573Z,1.00
2023-05-17T11:17:23.146Z,1.00
2023-05-17T11:19:57.554Z,1.47
2023-05-17T11:22:27.857Z,1.20
2023-05-17T11:24:59.056Z,1.23
2023-05-17T11:27:29.123Z,2.57
2023-05-17T11:29:58.970Z,1.17
2023-05-17T11:32:30.808Z,1.67
2023-05-17T11:35:01.980Z,0.93
2023-05-17T11:37:34.823Z,3.03
2023-05-17T11:40:05.015Z,1.77
2023-05-17T11:42:38.308Z,1.07
2023-05-17T11:45:07.701Z,1.47
2023-05-17T11:47:42.036Z,1.37
2023-05-17T11:50:12.463Z,1.30
2023-05-17T11:52:42.457Z,1.47
2023-05-17T11:55:16.140Z,0.87
2023-05-17T11:57:45.428Z,1.50
2023-05-17T12:00:16.914Z,0.90
2023-05-17T12:02:45.175Z,1.23
2023-05-17T12:05:20.668Z,0.80
2023-05-17T12:07:50.467Z,2.80
2023-05-17T12:10:19.344Z,0.60
2023-05-17T12:12:47.535Z,0.87
2023-05-17T12:15:20.556Z,1.90
2023-05-17T12:17:51.666Z,0.80
2023-05-17T12:20:20.366Z,0.83
2023-05-17T12:22:56.768Z,2.67
2023-05-17T12:25:28.110Z,1.00
2023-05-17T12:28:14.728Z,0.70
2023-05-17T12:30:42.999Z,0.77
2023-05-17T12:33:11.692Z,0.90
2023-05-17T12:35:40.768Z,0.90
2023-05-17T12:38:11.564Z,1.07
2023-05-17T12:40:43.434Z,1.20
2023-05-17T12:43:12.303Z,1.00
2023-05-17T12:45:43.861Z,1.80
2023-05-17T12:48:13.512Z,1.67
2023-05-17T12:50:45.862Z,1.00
2023-05-17T12:53:17.852Z,0.77
2023-05-17T12:55:45.944Z,1.10
2023-05-17T12:58:14.122Z,1.07
2023-05-17T13:00:42.387Z,1.13
2023-05-17T13:03:11.771Z,1.30
2023-05-17T13:05:41.374Z,1.10
2023-05-17T13:08:24.644Z,0.63
2023-05-17T13:10:52.807Z,2.20
2023-05-17T13:13:22.551Z,1.10
2023-05-17T13:15:51.065Z,1.10
2023-05-17T13:18:21.464Z,2.60
2023-05-17T13:20:51.453Z,1.07
2023-05-17T13:23:19.651Z,1.07
2023-05-17T13:25:49.212Z,1.10
2023-05-17T13:28:17.325Z,0.87
2023-05-17T13:30:52.116Z,0.83
2023-05-17T13:33:43.133Z,0.70
2023-05-17T13:36:12.288Z,0.67
2023-05-17T13:38:40.484Z,0.87
2023-05-17T13:41:10.385Z,1.93
2023-05-17T13:43:38.490Z,0.90
2023-05-17T13:46:07.092Z,1.20
2023-05-17T13:48:42.766Z,0.97
2023-05-17T13:51:12.519Z,0.60
2023-05-17T13:53:41.617Z,1.70
2023-05-17T13:56:11.290Z,0.70
2023-05-17T13:58:39.422Z,1.60
2023-05-17T14:01:07.838Z,1.67
2023-05-17T14:03:36.354Z,1.23
2023-05-17T14:06:06.422Z,1.23
2023-05-17T14:08:35.336Z,0.97
2023-05-17T14:11:03.658Z,2.43
2023-05-17T14:13:34.150Z,2.70
2023-05-17T14:16:02.362Z,0.87
2023-05-17T14:18:31.517Z,0.87
2023-05-17T14:21:01.153Z,3.27
2023-05-17T14:23:29.464Z,1.13
2023-05-17T14:25:58.083Z,2.10
2023-05-17T14:28:26.155Z,1.37
2023-05-17T14:30:55.639Z,0.83
2023-05-17T14:33:24.094Z,1.90
2023-05-17T14:35:52.287Z,1.53
2023-05-17T14:38:22.429Z,1.50
2023-05-17T14:40:50.542Z,0.97
2023-05-17T14:43:20.297Z,1.57
2023-05-17T14:45:48.736Z,2.50
2023-05-17T14:48:19.923Z,1.23
2023-05-17T14:50:48.462Z,0.70
2023-05-17T14:53:16.708Z,2.30
2023-05-17T14:55:44.917Z,2.17
2023-05-17T14:58:13.851Z,2.93
2023-05-17T15:00:48.511Z,2.93
2023-05-17T15:03:22.199Z,0.83
2023-05-17T15:05:55.615Z,1.80
2023-05-17T15:08:23.858Z,1.13
2023-05-17T15:10:54.309Z,2.10
2023-05-17T15:13:36.987Z,1.43
2023-05-17T15:16:05.184Z,2.47
2023-05-17T15:18:34.849Z,0.90
2023-05-17T15:21:03.552Z,1.90
2023-05-17T15:23:31.708Z,0.93
2023-05-17T15:26:00.300Z,3.27
2023-05-17T15:28:37.489Z,1.07
2023-05-17T15:31:10.660Z,0.70
2023-05-17T15:33:42.634Z,1.00
2023-05-17T15:36:12.417Z,1.87
2023-05-17T15:38:41.831Z,0.90
2023-05-17T15:41:13.085Z,1.60
2023-05-17T15:43:42.527Z,3.40
2023-05-17T15:46:11.847Z,0.80
2023-05-17T15:48:42.731Z,0.97
2023-05-17T15:51:10.979Z,1.07
2023-05-17T15:53:40.040Z,0.60
2023-05-17T15:56:10.255Z,1.23
2023-05-17T15:58:38.734Z,1.07
2023-05-17T16:01:07.554Z,0.90
2023-05-17T16:03:35.857Z,0.90
2023-05-17T16:06:05.884Z,4.03
2023-05-17T16:08:34.052Z,1.40
2023-05-17T16:11:02.715Z,1.03
2023-05-17T16:13:31.118Z,1.50
2023-05-17T16:16:00.468Z,1.27
2023-05-17T16:18:29.367Z,1.70
2023-05-17T16:21:01.123Z,1.13
2023-05-17T16:23:30.702Z,0.60
2023-05-17T16:25:58.895Z,1.20
2023-05-17T16:28:27.038Z,0.60
2023-05-17T16:31:01.433Z,1.13
2023-05-17T16:33:29.598Z,0.73
2023-05-17T16:35:59.079Z,1.17
2023-05-17T16:38:27.665Z,2.10
2023-05-17T16:40:57.585Z,1.33
2023-05-17T16:43:25.810Z,3.50
2023-05-17T16:45:55.071Z,1.00
2023-05-17T16:48:23.930Z,0.77
2023-05-17T16:50:52.345Z,2.63
2023-05-17T16:53:20.909Z,0.77
2023-05-17T16:55:49.074Z,0.80
2023-05-17T16:58:18.814Z,1.83
2023-05-17T17:00:47.380Z,4.00
2023-05-17T17:03:15.593Z,0.87
2023-05-17T17:05:43.862Z,0.70
2023-05-17T17:08:12.096Z,1.07
2023-05-17T17:10:44.090Z,2.27
2023-05-17T17:13:12.792Z,1.47
2023-05-17T17:15:42.374Z,0.60
2023-05-17T17:18:10.463Z,0.80
2023-05-17T17:20:38.751Z,2.33
2023-05-17T17:23:06.955Z,1.50
2023-05-17T17:25:35.273Z,0.70
2023-05-17T17:28:03.754Z,0.70
2023-05-17T17:30:32.124Z,0.60
2023-05-17T17:33:01.983Z,1.80
2023-05-17T17:35:30.842Z,0.83
2023-05-17T17:37:58.916Z,0.90
2023-05-17T17:40:27.545Z,2.40
2023-05-17T17:42:59.505Z,0.90
2023-05-17T17:45:28.528Z,1.03
2023-05-17T17:48:01.324Z,1.10
2023-05-17T17:50:30.168Z,0.70
2023-05-17T17:52:58.718Z,1.50
2023-05-17T17:55:27.007Z,0.70
2023-05-17T17:57:55.550Z,1.50
2023-05-17T18:00:24.160Z,1.40
2023-05-17T18:02:53.719Z,0.83
2023-05-17T18:05:23.370Z,0.60
2023-05-17T18:07:52.097Z,0.70
2023-05-17T18:10:20.544Z,0.60
2023-05-17T18:12:51.516Z,0.70
2023-05-17T18:15:20.018Z,0.60
2023-05-17T18:17:49.028Z,0.77
2023-05-17T18:20:17.622Z,0.77
2023-05-17T18:22:48.070Z,1.60
2023-05-17T18:25:16.271Z,1.43
2023-05-17T18:27:44.802Z,1.07
2023-05-17T18:30:13.850Z,0.93
2023-05-17T18:32:42.105Z,0.80
2023-05-17T18:35:10.590Z,1.13
2023-05-17T18:37:38.886Z,1.37
2023-05-17T18:40:09.874Z,0.70
2023-05-17T18:42:38.398Z,1.27
2023-05-17T18:45:09.197Z,0.50
2023-05-17T18:47:37.978Z,0.70
2023-05-17T18:50:06.828Z,0.77
2023-05-17T18:52:34.950Z,0.77
2023-05-17T18:55:03.186Z,1.77
2023-05-17T18:57:33.205Z,0.70
2023-05-17T19:00:01.769Z,0.57
2023-05-17T19:02:30.353Z,0.50
2023-05-17T19:04:58.499Z,0.60
2023-05-17T19:07:26.710Z,0.97
2023-05-17T19:09:54.992Z,0.60
2023-05-17T19:12:23.233Z,0.70
2023-05-17T19:14:52.761Z,0.50
2023-05-17T19:17:36.902Z,0.80
2023-05-17T19:20:05.581Z,0.80
2023-05-17T19:22:35.887Z,3.23
2023-05-17T19:25:04.498Z,0.67
2023-05-17T19:27:32.607Z,1.27
2023-05-17T19:30:02.162Z,0.67
2023-05-17T19:32:33.262Z,0.77
2023-05-17T19:35:02.366Z,0.60
2023-05-17T19:37:30.545Z,0.70
2023-05-17T19:39:59.946Z,2.70
2023-05-17T19:42:28.545Z,1.13
2023-05-17T19:44:58.428Z,0.67
2023-05-17T19:47:27.908Z,1.77
2023-05-17T19:49:56.233Z,0.57
2023-05-17T19:52:24.282Z,0.90
2023-05-17T19:54:52.786Z,0.53
2023-05-17T19:57:20.919Z,0.60
2023-05-17T19:59:51.477Z,1.00
2023-05-17T20:02:20.565Z,0.80
2023-05-17T20:04:51.048Z,0.77
2023-05-17T20:07:25.515Z,0.80
2023-05-17T20:09:54.334Z,0.70
2023-05-17T20:12:24.199Z,2.40
2023-05-17T20:14:52.336Z,0.60
2023-05-17T20:17:20.612Z,1.70
2023-05-17T20:20:12.409Z,1.13
2023-05-17T20:22:42.717Z,0.60
2023-05-17T20:25:11.827Z,0.70
2023-05-17T20:27:39.963Z,1.00
2023-05-17T20:30:09.318Z,1.53
2023-05-17T20:32:37.483Z,0.70
2023-05-17T20:35:08.065Z,2.67
2023-05-17T20:37:36.276Z,0.80
2023-05-17T20:42:53.874Z,4.87
2023-05-17T20:45:24.349Z,1.67
2023-05-17T20:47:56.363Z,2.70
2023-05-17T20:50:29.446Z,1.20
2023-05-17T20:52:57.772Z,1.87
2023-05-17T20:55:25.966Z,1.93
2023-05-17T20:57:54.536Z,2.33
2023-05-17T21:00:23.385Z,2.23
2023-05-17T21:02:52.234Z,1.07
2023-05-17T21:05:20.571Z,0.87
2023-05-17T21:08:08.477Z,1.33
2023-05-17T21:10:40.711Z,1.87
2023-05-17T21:13:09.650Z,2.23
2023-05-17T21:15:37.877Z,1.03
2023-05-17T21:18:06.877Z,1.70
2023-05-17T21:20:35.231Z,1.87
2023-05-17T21:23:04.709Z,1.87
2023-05-17T21:25:34.181Z,2.13
2023-05-17T21:28:02.310Z,1.17
2023-05-17T21:30:31.089Z,1.37
2023-05-17T21:32:59.523Z,2.87
2023-05-17T21:35:28.059Z,3.60
2023-05-17T21:37:56.131Z,1.97
2023-05-17T21:40:26.335Z,1.07
2023-05-17T21:42:54.452Z,1.60
2023-05-17T21:45:23.913Z,1.20
2023-05-17T21:47:54.596Z,1.27
2023-05-17T21:50:22.759Z,3.77
2023-05-17T21:52:51.002Z,0.80
2023-05-17T21:55:19.228Z,1.00
2023-05-17T21:57:48.786Z,1.53
2023-05-17T22:00:17.636Z,0.60
2023-05-17T22:02:46.380Z,2.17
2023-05-17T22:05:15.152Z,1.60
2023-05-17T22:07:44.736Z,2.17
2023-05-17T22:10:32.675Z,1.90
2023-05-17T22:13:03.252Z,2.13
2023-05-17T22:15:31.413Z,3.77
2023-05-17T22:17:59.665Z,2.00
2023-05-17T22:20:29.341Z,7.60
2023-05-17T22:22:58.620Z,4.17
2023-05-17T22:25:27.313Z,0.70
2023-05-17T22:27:55.380Z,1.63
2023-05-17T22:30:26.060Z,1.43
2023-05-17T22:32:57.285Z,1.80
2023-05-17T22:35:26.083Z,1.67
2023-05-17T22:37:54.229Z,0.80
2023-05-17T22:40:23.462Z,1.27
2023-05-17T22:42:52.129Z,0.80
2023-05-17T22:45:20.367Z,1.70
2023-05-17T22:47:50.843Z,2.00
2023-05-17T22:50:19.807Z,5.33
2023-05-17T22:52:50.816Z,0.70
2023-05-17T22:55:19.078Z,2.50
2023-05-17T22:57:47.491Z,2.57
2023-05-17T23:00:28.806Z,0.80
2023-05-17T23:02:58.539Z,4.17
2023-05-17T23:05:27.227Z,2.07
2023-05-17T23:07:55.589Z,1.60
2023-05-17T23:10:24.866Z,2.10
2023-05-17T23:12:52.977Z,1.87
2023-05-17T23:15:21.934Z,1.10
2023-05-17T23:17:51.123Z,2.70
2023-05-17T23:20:25.180Z,1.07
2023-05-17T23:22:54.837Z,1.07
2023-05-17T23:25:23.228Z,3.13
2023-05-17T23:27:51.498Z,1.10
2023-05-17T23:30:20.974Z,1.30
2023-05-17T23:32:51.469Z,2.10
2023-05-17T23:35:21.306Z,1.30
2023-05-17T23:37:49.416Z,1.60
2023-05-17T23:40:17.958Z,1.77
2023-05-17T23:42:46.654Z,3.57
2023-05-17T23:45:14.762Z,2.77
2023-05-17T23:47:42.964Z,3.93
2023-05-17T23:50:12.293Z,2.10
2023-05-17T23:52:43.530Z,7.77
2023-05-17T23:55:12.184Z,1.17
2023-05-17T23:57:42.444Z,2.73
